Airfield :
LOGIN :

Register | Disclaimer

   EN    FR    IT 

 










Legend :    VFR   Marginal VFR   IFR   Intensive IFR   Very Intensive IFR
Visi :
Ceiling :
>= 8 km
>= 3000ft
5 to 8 km
1000 to 3000 ft
1500m to 5 km
500 to 1000 ft
800 to 1500m
200 to 500 ft
< 800m
< 200 ft
Symbols :   Thunderstorms  Fog  Heavy snow  Heavy precipitations  Wind > 20 kt
SIGMETs :     Misc.  Thunderstorms  Icing  Turbulence  Mountain Waves  Volcanic Ashes







- Airport Elevation : 194 ft
- IATA code : ANE
- Download approach charts


LFJR - Angers Marcé

CURRENT METAR :
  • 241230Z AUTO 01009KT 340V040 9999 BKN031 BKN039 OVC054 12/06 Q1029 NOSIG

EXPIRED METARs :
  • 241200Z AUTO 02007KT 340V040 9999 FEW028 OVC049 12/06 Q1029 NOSIG
  • 241130Z AUTO 02005KT 9999 SCT039 OVC046 12/05 Q1029 NOSIG
  • 241100Z AUTO 35006KT 320V030 9999 SCT039 OVC045 12/04 Q1029 NOSIG
  • 241030Z AUTO 36006KT 340V060 9999 SCT036 OVC044 12/04 Q1029 NOSIG
  • 241000Z AUTO VRB05KT 9999 SCT031 SCT037 BKN044 12/06 Q1029 NOSIG

TAF TAF LFJR
Valid from the 24 at 12:00 until the 24 at 21:00 UTC


241100Z 2412/2421 02007KT 9999 BKN035
No reported NOTAMs for that airfield.



MET'MAP, your aeronautical weather chart ! - Copyright ORBIFLY December 2007 - Disclaimer

ORBIFLY MET'MAP TEAM :

Programming & Development : Alexandra Zaïnal
Concept & Development : Baudouin d'Aumeries
Co-Development & Prog : Marc-Olivier Méhu
Technical & hardware support : Manuel Goepfert

Contact : metmap@orbifly.com




SOURCES & CREDITS :

   NOAA